Time;durP1;ratioP1;P1;durP2;ratioP2;P2;SDS_P1;SDS_P2;PMS_P1;PMS_P2;Temp;Humidity;BMP_temperature;BMP_pressure;BME280_temperature;BME280_humidity;BME280_pressure;Samples;Min_cycle;Max_cycle;Signal;HPM_P1;HPM_P2
2022/07/18 00:01:11;;;;;;;4.92;1.42;;;;;;;11.43;94.67;99978.25;1788532;79;21114;-77
2022/07/18 00:03:37;;;;;;;1.40;1.30;;;;;;;11.47;94.56;99979.88;1742032;82;21189;-77
2022/07/18 00:06:04;;;;;;;1.95;1.32;;;;;;;11.49;94.43;99983.31;1766582;81;21028;-77
2022/07/18 00:08:31;;;;;;;3.60;1.15;;;;;;;11.50;94.37;99980.25;1766497;81;21478;-76
2022/07/18 00:10:57;;;;;;;2.45;1.10;;;;;;;11.52;94.28;99991.59;1736335;82;21039;-76
2022/07/18 00:13:24;;;;;;;3.10;1.30;;;;;;;11.53;94.18;99989.34;1772466;80;21064;-76
2022/07/18 00:15:52;;;;;;;3.45;1.52;;;;;;;11.53;94.11;99986.71;1753030;81;21046;-76
2022/07/18 00:18:19;;;;;;;2.83;1.40;;;;;;;11.51;94.08;99986.75;1767264;80;21043;-76
2022/07/18 00:20:45;;;;;;;2.10;1.25;;;;;;;11.50;94.09;99977.14;1766540;81;21035;-77
2022/07/18 00:23:12;;;;;;;4.28;1.37;;;;;;;11.50;94.05;99980.25;1768641;81;21017;-76
2022/07/18 00:25:39;;;;;;;1.62;1.10;;;;;;;11.50;94.11;99984.20;1762523;79;21043;-76
2022/07/18 00:28:07;;;;;;;3.00;1.27;;;;;;;11.50;94.19;99986.83;1769168;80;21012;-77
2022/07/18 00:30:35;;;;;;;2.50;1.42;;;;;;;11.47;94.27;99990.41;1736728;82;21075;-76
2022/07/18 00:33:03;;;;;;;1.85;1.37;;;;;;;11.45;94.29;99988.28;1768932;81;21075;-76
2022/07/18 00:35:30;;;;;;;4.47;1.65;;;;;;;11.44;94.32;99990.50;1737008;82;21134;-76
2022/07/18 00:37:56;;;;;;;1.70;1.60;;;;;;;11.43;94.35;99982.20;1769488;81;21019;-77
2022/07/18 00:40:23;;;;;;;3.77;1.20;;;;;;;11.41;94.45;99989.27;1736884;82;21118;-77
2022/07/18 00:42:50;;;;;;;2.05;1.42;;;;;;;11.40;94.50;99994.58;1769217;81;21087;-77
2022/07/18 00:45:16;;;;;;;3.40;1.30;;;;;;;11.37;94.71;99996.88;1736997;82;21601;-76
2022/07/18 00:47:43;;;;;;;1.62;1.42;;;;;;;11.35;94.81;99998.70;1769150;81;21048;-76
2022/07/18 00:50:09;;;;;;;3.95;1.27;;;;;;;11.32;94.95;99996.15;1737307;82;20964;-76
2022/07/18 00:52:36;;;;;;;3.65;1.90;;;;;;;11.30;95.04;99994.02;1769090;81;21038;-77
2022/07/18 00:55:05;;;;;;;1.35;1.12;;;;;;;11.31;95.07;99997.05;1736826;82;21009;-76
2022/07/18 00:57:31;;;;;;;3.15;1.37;;;;;;;11.31;95.02;99994.41;1769412;81;21047;-77
2022/07/18 01:02:42;;;;;;;4.08;1.30;;;;;;;11.27;95.13;100001.55;1769552;81;21044;-76
2022/07/18 01:05:09;;;;;;;4.80;1.37;;;;;;;11.25;95.11;99998.56;1737066;82;21075;-76
2022/07/18 01:07:36;;;;;;;4.10;1.50;;;;;;;11.21;95.07;100000.87;1769166;81;20996;-76
2022/07/18 01:10:04;;;;;;;1.35;1.25;;;;;;;11.17;95.18;99994.83;1736866;82;21075;-76
2022/07/18 01:12:31;;;;;;;3.22;1.60;;;;;;;11.14;95.32;99998.86;1768842;81;21059;-77
2022/07/18 01:14:58;;;;;;;2.47;1.40;;;;;;;11.12;95.49;100002.86;1737059;82;21070;-77
2022/07/18 01:17:26;;;;;;;3.65;1.40;;;;;;;11.13;95.72;100003.74;1768924;81;21111;-77
2022/07/18 01:19:53;;;;;;;4.28;1.42;;;;;;;11.14;95.77;100003.67;1736947;82;21056;-76
2022/07/18 01:22:20;;;;;;;2.58;1.40;;;;;;;11.15;95.98;100008.50;1765345;81;21527;-76
2022/07/18 01:24:46;;;;;;;2.17;1.60;;;;;;;11.16;96.12;100003.63;1762196;81;21091;-77
2022/07/18 01:27:18;;;;;;;1.72;1.60;;;;;;;11.15;96.42;100006.72;1762279;81;21064;-76
2022/07/18 01:29:46;;;;;;;3.42;1.50;;;;;;;11.18;96.78;100008.42;1762274;81;21106;-76
2022/07/18 01:32:14;;;;;;;1.50;1.40;;;;;;;11.21;96.87;100004.81;1762100;81;21562;-76
2022/07/18 01:34:41;;;;;;;1.87;1.50;;;;;;;11.24;97.09;100017.91;1762167;81;21658;-77
2022/07/18 01:37:08;;;;;;;4.87;1.65;;;;;;;11.24;97.27;100010.85;1762215;81;21590;-76
2022/07/18 01:39:35;;;;;;;3.20;1.50;;;;;;;11.25;97.41;100012.59;1762348;81;21617;-77
2022/07/18 01:42:04;;;;;;;2.00;1.62;;;;;;;11.29;97.53;100015.99;1762493;81;21215;-76
2022/07/18 01:44:33;;;;;;;2.05;1.55;;;;;;;11.30;97.67;100011.14;1762312;81;21106;-76
2022/07/18 01:47:01;;;;;;;11.80;1.90;;;;;;;11.32;97.75;100006.69;1762248;81;21043;-76
2022/07/18 01:49:29;;;;;;;3.70;1.80;;;;;;;11.33;97.81;100006.64;1762328;81;21028;-76
2022/07/18 01:51:56;;;;;;;2.65;1.50;;;;;;;11.34;97.87;100008.81;1762614;81;21078;-77
2022/07/18 01:54:26;;;;;;;1.98;1.30;;;;;;;11.36;97.83;100010.94;1762390;81;21061;-75
2022/07/18 01:56:52;;;;;;;1.80;1.70;;;;;;;11.34;97.81;100010.13;1763398;80;21055;-77
2022/07/18 01:59:19;;;;;;;1.85;1.57;;;;;;;11.34;97.78;100011.45;1762181;80;21010;-76
2022/07/18 02:01:46;;;;;;;3.50;1.65;;;;;;;11.33;97.70;100011.03;1759547;80;21076;-77
2022/07/18 02:04:12;;;;;;;4.10;1.45;;;;;;;11.32;97.59;100021.17;1759712;80;21041;-77
2022/07/18 02:06:39;;;;;;;1.95;1.37;;;;;;;11.29;97.61;100028.70;1759578;81;21586;-77
2022/07/18 02:09:07;;;;;;;1.80;1.70;;;;;;;11.28;97.75;100029.63;1759517;81;21061;-77
2022/07/18 02:11:34;;;;;;;1.62;1.52;;;;;;;11.26;97.87;100034.09;1759632;80;21132;-77
2022/07/18 02:14:04;;;;;;;4.72;2.00;;;;;;;11.26;98.01;100034.52;1759772;80;21113;-77
2022/07/18 02:16:31;;;;;;;2.45;1.40;;;;;;;11.27;98.14;100034.48;1761711;80;21602;-77
2022/07/18 02:18:58;;;;;;;1.65;1.52;;;;;;;11.31;98.14;100038.77;1685602;85;21677;-75
2022/07/18 02:21:24;;;;;;;4.33;1.65;;;;;;;11.34;98.09;100036.48;1715767;83;21051;-76
2022/07/18 02:23:51;;;;;;;1.87;1.75;;;;;;;11.35;98.09;100027.68;1744862;81;21058;-77
2022/07/18 02:26:18;;;;;;;1.77;1.67;;;;;;;11.36;98.05;100033.34;1744785;82;21073;-76
2022/07/18 02:28:44;;;;;;;5.75;1.55;;;;;;;11.35;98.06;100027.68;1745153;82;20999;-77
2022/07/18 02:31:11;;;;;;;5.05;1.75;;;;;;;11.34;98.06;100031.20;1744950;82;21195;-77
2022/07/18 02:33:38;;;;;;;3.37;1.60;;;;;;;11.33;98.01;100034.73;1744919;82;20975;-77
2022/07/18 02:36:05;;;;;;;3.62;1.50;;;;;;;11.34;97.98;100035.16;1745111;82;21062;-77
2022/07/18 02:38:32;;;;;;;2.05;1.47;;;;;;;11.34;97.98;100028.58;1744832;82;21081;-77
2022/07/18 02:40:58;;;;;;;4.33;1.92;;;;;;;11.34;97.93;100026.80;1745222;82;21085;-77
2022/07/18 02:43:25;;;;;;;3.45;1.30;;;;;;;11.33;97.92;100032.10;1744972;82;22249;-76
2022/07/18 02:45:53;;;;;;;4.00;1.50;;;;;;;11.32;97.86;100031.72;1744674;82;21346;-77
2022/07/18 02:48:20;;;;;;;2.35;1.40;;;;;;;11.30;97.77;100027.80;1745332;82;21062;-77
2022/07/18 02:50:46;;;;;;;2.35;1.52;;;;;;;11.33;97.76;100034.73;1744675;82;21497;-77
2022/07/18 02:53:13;;;;;;;2.77;1.47;;;;;;;11.32;97.71;100036.52;1745457;82;21050;-77
2022/07/18 02:55:39;;;;;;;1.75;1.65;;;;;;;11.32;97.70;100030.40;1744708;82;21258;-77
2022/07/18 02:58:05;;;;;;;3.52;1.60;;;;;;;11.32;97.70;100036.98;1744983;81;21117;-76
2022/07/18 03:00:32;;;;;;;2.72;1.30;;;;;;;11.32;97.68;100039.16;1744819;82;20989;-77
2022/07/18 03:02:59;;;;;;;1.40;1.30;;;;;;;11.33;97.70;100040.01;1744975;82;21165;-77
2022/07/18 03:05:25;;;;;;;1.67;1.57;;;;;;;11.35;97.77;100038.22;1745114;82;21474;-77
2022/07/18 03:07:51;;;;;;;1.80;1.70;;;;;;;11.39;97.73;100042.94;1745026;82;21171;-77
2022/07/18 03:10:18;;;;;;;7.12;1.50;;;;;;;11.41;97.68;100038.02;1744975;82;21015;-76
2022/07/18 03:12:45;;;;;;;2.27;1.60;;;;;;;11.44;97.63;100043.66;1744869;82;21082;-76
2022/07/18 03:15:12;;;;;;;8.68;1.82;;;;;;;11.46;97.58;100048.42;1745009;82;20971;-76
2022/07/18 03:17:38;;;;;;;4.45;1.77;;;;;;;11.47;97.55;100046.21;1744950;82;21082;-76
2022/07/18 03:20:06;;;;;;;3.77;2.75;;;;;;;11.47;97.55;100053.66;1744962;82;21499;-77
2022/07/18 03:22:33;;;;;;;3.90;1.80;;;;;;;11.48;97.49;100063.30;1744801;82;21469;-77
2022/07/18 03:25:00;;;;;;;1.72;1.62;;;;;;;11.48;97.36;100075.59;1744910;82;21525;-77
2022/07/18 03:27:27;;;;;;;2.00;1.77;;;;;;;11.46;97.32;100073.45;1744792;82;21011;-77
2022/07/18 03:29:54;;;;;;;2.20;1.80;;;;;;;11.41;97.33;100067.00;1745032;82;21549;-77
2022/07/18 03:32:20;;;;;;;2.02;1.57;;;;;;;11.39;97.47;100075.41;1745160;82;21063;-76
2022/07/18 03:34:48;;;;;;;1.80;1.70;;;;;;;11.37;97.49;100071.95;1744965;82;21604;-77
2022/07/18 03:37:14;;;;;;;4.62;1.67;;;;;;;11.36;97.55;100071.54;1744785;82;21050;-77
2022/07/18 03:39:41;;;;;;;2.83;1.85;;;;;;;11.40;97.70;100070.56;1745280;82;21042;-77
2022/07/18 03:42:07;;;;;;;4.53;1.32;;;;;;;11.43;97.77;100075.74;1745275;82;21038;-76
2022/07/18 03:44:35;;;;;;;2.50;1.60;;;;;;;11.46;97.78;100075.63;1744789;82;21110;-76
2022/07/18 03:47:03;;;;;;;1.60;1.42;;;;;;;11.50;97.83;100081.23;1744916;82;21528;-77
2022/07/18 03:49:30;;;;;;;1.57;1.42;;;;;;;11.56;97.85;100075.38;1745296;82;21058;-77
2022/07/18 03:51:57;;;;;;;4.45;1.40;;;;;;;11.61;97.76;100080.05;1748098;80;21564;-77
2022/07/18 03:54:23;;;;;;;1.57;1.47;;;;;;;11.66;97.63;100080.31;1745306;82;21076;-77
2022/07/18 03:56:50;;;;;;;2.70;1.50;;;;;;;11.71;97.61;100082.35;1744714;82;21522;-77
2022/07/18 03:59:17;;;;;;;2.27;1.60;;;;;;;11.79;97.55;100079.49;1745092;82;21112;-77
2022/07/18 04:01:43;;;;;;;2.20;1.70;;;;;;;11.86;97.44;100077.07;1744709;82;21077;-76
2022/07/18 04:04:11;;;;;;;2.62;1.70;;;;;;;11.95;97.24;100079.05;1745104;81;21100;-76
2022/07/18 04:06:39;;;;;;;3.15;1.67;;;;;;;12.02;97.20;100077.94;1744760;81;21505;-76
2022/07/18 04:09:06;;;;;;;2.27;1.57;;;;;;;12.10;96.96;100078.56;1745410;81;21100;-76
2022/07/18 04:11:33;;;;;;;1.57;1.47;;;;;;;12.19;96.84;100081.38;1744592;81;21022;-77
2022/07/18 04:14:01;;;;;;;3.62;1.72;;;;;;;12.27;96.67;100087.25;1745166;81;21617;-77
2022/07/18 04:16:28;;;;;;;1.98;1.60;;;;;;;12.36;96.27;100074.23;1744630;82;20982;-77
2022/07/18 04:18:55;;;;;;;5.35;1.70;;;;;;;12.45;96.00;100077.41;1745015;81;21093;-77
2022/07/18 04:21:22;;;;;;;3.08;1.70;;;;;;;12.53;95.72;100072.34;1744731;82;21611;-76
2022/07/18 04:23:48;;;;;;;1.80;1.70;;;;;;;12.60;95.59;100064.16;1753047;81;21085;-77
2022/07/18 04:26:15;;;;;;;6.05;2.15;;;;;;;12.67;95.17;100059.99;1756458;81;21072;-77
2022/07/18 04:28:42;;;;;;;2.00;1.60;;;;;;;12.73;94.79;100058.47;1815331;77;21127;-77
2022/07/18 04:31:08;;;;;;;2.45;1.55;;;;;;;12.80;94.59;100069.22;1814226;79;21114;-77
2022/07/18 04:33:35;;;;;;;4.05;1.60;;;;;;;12.86;94.40;100069.45;1814076;78;21104;-77
2022/07/18 04:36:02;;;;;;;1.95;1.47;;;;;;;12.93;94.10;100075.80;1814106;77;20942;-77
2022/07/18 04:38:33;;;;;;;1.85;1.62;;;;;;;12.99;93.71;100078.23;1814197;78;20944;-78
2022/07/18 04:40:57;;;;;;;3.72;1.75;;;;;;;13.05;93.10;100070.53;1813886;77;21017;-77
2022/07/18 04:43:23;;;;;;;4.05;1.60;;;;;;;13.12;92.77;100071.17;1814537;78;21067;-77
2022/07/18 04:45:50;;;;;;;1.98;1.85;;;;;;;13.19;92.57;100079.27;1814191;79;21588;-76
2022/07/18 04:48:16;;;;;;;2.08;1.75;;;;;;;13.27;92.50;100075.89;1814031;78;21099;-77
2022/07/18 04:50:42;;;;;;;4.85;1.50;;;;;;;13.36;92.47;100082.20;1813973;78;21096;-77
2022/07/18 04:53:10;;;;;;;4.17;2.00;;;;;;;13.46;92.18;100077.88;1813728;77;21044;-77
2022/07/18 04:55:37;;;;;;;1.90;1.80;;;;;;;13.52;91.65;100074.55;1814048;79;21001;-77
2022/07/18 04:58:04;;;;;;;2.37;1.70;;;;;;;13.59;91.56;100074.33;1813883;77;21123;-77
2022/07/18 05:00:31;;;;;;;2.17;1.98;;;;;;;13.68;91.23;100072.17;1814104;77;21893;-77
2022/07/18 05:02:57;;;;;;;2.20;2.00;;;;;;;13.78;90.87;100081.08;1814248;78;21060;-77
2022/07/18 05:05:26;;;;;;;3.50;2.50;;;;;;;13.83;90.58;100079.12;1814120;78;21488;-77
2022/07/18 05:07:53;;;;;;;2.58;2.10;;;;;;;13.88;90.03;100078.00;1814295;78;21099;-77
2022/07/18 05:10:23;;;;;;;6.28;1.62;;;;;;;13.91;89.57;100076.56;1814137;78;21456;-77
2022/07/18 05:12:53;;;;;;;2.42;1.57;;;;;;;13.97;89.15;100079.89;1813980;78;21095;-77
2022/07/18 05:15:21;;;;;;;5.08;2.33;;;;;;;14.04;88.94;100081.39;1814471;78;21036;-77
2022/07/18 05:17:48;;;;;;;1.80;1.70;;;;;;;14.11;88.45;100079.75;1814290;79;21119;-77
2022/07/18 05:20:17;;;;;;;1.92;1.70;;;;;;;14.17;88.49;100083.06;1814724;77;21033;-76
2022/07/18 05:22:44;;;;;;;1.70;1.60;;;;;;;14.27;87.77;100081.77;1813342;79;21147;-77
2022/07/18 05:25:11;;;;;;;2.55;2.05;;;;;;;14.33;87.37;100084.17;1804938;78;20994;-77
2022/07/18 05:27:39;;;;;;;3.27;2.33;;;;;;;14.38;87.09;100076.91;1804918;79;21588;-77
2022/07/18 05:30:07;;;;;;;6.35;1.87;;;;;;;14.45;86.28;100082.80;1805403;78;20986;-77
2022/07/18 05:32:34;;;;;;;5.53;2.10;;;;;;;14.51;86.41;100073.30;1805904;78;21131;-77
2022/07/18 05:35:00;;;;;;;2.08;1.85;;;;;;;14.59;86.36;100078.28;1805121;78;21230;-76
2022/07/18 05:37:27;;;;;;;3.90;1.87;;;;;;;14.69;85.88;100082.25;1805016;78;21021;-77
2022/07/18 05:39:53;;;;;;;2.42;1.95;;;;;;;14.77;85.66;100073.52;1805376;79;20997;-77
2022/07/18 05:42:20;;;;;;;1.70;1.60;;;;;;;14.85;84.28;100082.00;1805159;78;21092;-77
2022/07/18 05:44:47;;;;;;;2.75;1.82;;;;;;;14.92;84.55;100073.80;1806048;78;21021;-77
2022/07/18 05:47:15;;;;;;;4.37;2.00;;;;;;;15.00;84.97;100078.30;1804994;78;21043;-77
2022/07/18 05:49:42;;;;;;;2.85;1.70;;;;;;;15.09;85.01;100075.23;1805021;78;21051;-76
2022/07/18 05:52:08;;;;;;;1.70;1.50;;;;;;;15.21;84.91;100078.68;1805420;78;21574;-77
2022/07/18 05:54:35;;;;;;;2.30;1.72;;;;;;;15.33;83.65;100079.03;1805343;78;21906;-77
2022/07/18 05:57:02;;;;;;;3.00;1.90;;;;;;;15.37;82.86;100077.98;1805075;78;21153;-77
2022/07/18 05:59:28;;;;;;;7.92;1.92;;;;;;;15.38;82.63;100082.34;1805459;79;21000;-77
2022/07/18 06:01:55;;;;;;;3.52;1.95;;;;;;;15.41;83.51;100086.18;1805382;78;21035;-77
2022/07/18 06:04:21;;;;;;;2.60;1.87;;;;;;;15.46;82.82;100085.50;1805747;78;21094;-77
2022/07/18 06:06:49;;;;;;;6.83;1.90;;;;;;;15.50;81.03;100085.77;1791421;79;21634;-77
2022/07/18 06:09:17;;;;;;;4.08;1.77;;;;;;;15.50;81.27;100089.75;1805016;79;21043;-77
2022/07/18 06:11:43;;;;;;;1.98;1.55;;;;;;;15.55;81.63;100085.09;1804906;78;21107;-77
2022/07/18 06:14:10;;;;;;;2.67;1.85;;;;;;;15.66;82.13;100085.06;1805248;79;21016;-77
2022/07/18 06:16:37;;;;;;;2.58;1.60;;;;;;;15.73;81.42;100080.70;1805680;79;21039;-77
2022/07/18 06:19:04;;;;;;;5.78;2.37;;;;;;;15.76;80.95;100083.73;1805218;78;21996;-78
2022/07/18 06:21:30;;;;;;;2.70;1.80;;;;;;;15.86;80.81;100078.38;1805158;78;21035;-77
2022/07/18 06:23:57;;;;;;;2.10;1.60;;;;;;;15.97;80.40;100085.37;1805005;79;21521;-77
2022/07/18 06:26:24;;;;;;;1.90;1.70;;;;;;;16.11;80.20;100082.52;1804839;79;21044;-77
2022/07/18 06:28:50;;;;;;;3.60;1.95;;;;;;;16.24;79.43;100082.76;1804842;78;21059;-77
2022/07/18 06:31:17;;;;;;;4.75;1.90;;;;;;;16.34;78.69;100089.37;1804910;79;21032;-77
2022/07/18 06:33:44;;;;;;;4.53;1.70;;;;;;;16.41;78.42;100084.58;1805443;79;21648;-77
2022/07/18 06:36:11;;;;;;;1.50;1.40;;;;;;;16.49;79.31;100082.41;1805141;79;21113;-77
2022/07/18 06:38:39;;;;;;;2.05;1.60;;;;;;;16.63;78.99;100076.42;1804978;79;21145;-77
2022/07/18 06:41:06;;;;;;;1.70;1.60;;;;;;;16.78;78.87;100075.63;1805233;79;21055;-77
2022/07/18 06:43:33;;;;;;;2.75;1.47;;;;;;;16.87;77.11;100071.67;1805310;79;21342;-77
2022/07/18 06:46:00;;;;;;;4.08;1.40;;;;;;;16.91;76.23;100071.88;1805709;78;21039;-77
2022/07/18 06:48:32;;;;;;;1.92;1.50;;;;;;;16.92;76.44;100077.60;1805749;78;21101;-77
2022/07/18 06:50:56;;;;;;;5.20;1.77;;;;;;;16.97;75.52;100076.89;1804983;78;20989;-76
2022/07/18 06:53:24;;;;;;;3.00;1.60;;;;;;;17.00;74.94;100071.90;1805287;79;21511;-77
2022/07/18 06:55:51;;;;;;;5.47;1.77;;;;;;;17.05;75.52;100069.86;1805041;79;21032;-77
2022/07/18 06:58:18;;;;;;;1.80;1.47;;;;;;;17.14;74.94;100072.49;1805854;78;21497;-77
2022/07/18 07:00:46;;;;;;;11.65;2.00;;;;;;;17.18;74.66;100069.59;1804833;79;21506;-77
2022/07/18 07:03:13;;;;;;;3.17;1.70;;;;;;;17.22;75.21;100073.80;1805110;79;21059;-77
2022/07/18 07:05:39;;;;;;;1.80;1.57;;;;;;;17.34;74.95;100070.95;1805186;79;21024;-77
2022/07/18 07:08:06;;;;;;;3.25;1.82;;;;;;;17.46;74.51;100074.27;1805610;78;21129;-77
2022/07/18 07:10:33;;;;;;;4.00;1.90;;;;;;;17.58;73.61;100070.08;1805215;79;21531;-77
2022/07/18 07:13:01;;;;;;;5.33;1.90;;;;;;;17.68;71.87;100069.11;1804997;79;21119;-77
2022/07/18 07:15:27;;;;;;;2.72;1.67;;;;;;;17.77;72.05;100069.94;1804816;79;20989;-77
2022/07/18 07:17:54;;;;;;;4.70;1.90;;;;;;;17.82;72.35;100073.69;1805390;78;21119;-77
2022/07/18 07:20:22;;;;;;;1.92;1.60;;;;;;;17.87;70.38;100069.44;1804944;79;21586;-77
2022/07/18 07:22:53;;;;;;;2.22;1.47;;;;;;;17.93;69.46;100071.77;1805275;78;21027;-77
2022/07/18 07:25:22;;;;;;;3.17;1.75;;;;;;;17.98;70.32;100067.05;1804902;78;21471;-77
2022/07/18 07:27:49;;;;;;;1.87;1.62;;;;;;;18.08;69.53;100070.90;1805057;79;21134;-77
2022/07/18 07:30:17;;;;;;;2.42;2.00;;;;;;;18.20;69.33;100066.19;1805009;78;21110;-77
2022/07/18 07:32:44;;;;;;;1.70;1.60;;;;;;;18.35;68.50;100066.27;1804902;79;21049;-77
2022/07/18 07:35:13;;;;;;;2.52;1.30;;;;;;;18.47;68.85;100074.86;1804956;79;21031;-77
2022/07/18 07:37:42;;;;;;;3.85;1.87;;;;;;;18.59;66.65;100065.77;1805150;78;21713;-77
2022/07/18 07:40:09;;;;;;;4.95;1.22;;;;;;;18.69;66.39;100066.94;1805288;79;22028;-77
2022/07/18 07:42:36;;;;;;;5.25;1.95;;;;;;;18.79;65.88;100072.59;1805393;79;21001;-77
2022/07/18 07:45:05;;;;;;;3.05;1.22;;;;;;;18.85;64.94;100073.11;1804847;79;21072;-77
2022/07/18 07:47:31;;;;;;;1.32;1.15;;;;;;;18.85;63.21;100073.11;1805062;79;21517;-77
2022/07/18 07:49:58;;;;;;;3.27;1.45;;;;;;;18.83;64.23;100083.02;1804864;79;21112;-77
2022/07/18 07:52:27;;;;;;;2.22;1.30;;;;;;;18.90;64.79;100070.17;1804951;79;21100;-77
2022/07/18 07:54:54;;;;;;;3.85;1.35;;;;;;;18.99;64.81;100072.75;1804857;79;21044;-77
2022/07/18 07:57:21;;;;;;;15.60;9.35;;;;;;;19.04;63.80;100067.51;1805129;79;21108;-77
2022/07/18 07:59:48;;;;;;;3.50;3.20;;;;;;;19.02;62.93;100072.09;1805360;78;21064;-76
2022/07/18 08:02:15;;;;;;;1.87;1.77;;;;;;;19.05;64.35;100068.39;1805009;78;21107;-77
2022/07/18 08:04:42;;;;;;;1.30;1.00;;;;;;;19.17;64.56;100072.96;1805217;78;20966;-77
2022/07/18 08:07:09;;;;;;;1.75;0.98;;;;;;;19.29;61.89;100066.86;1805092;79;21962;-77
2022/07/18 08:09:37;;;;;;;3.17;0.90;;;;;;;19.42;60.80;100070.12;1805007;79;21619;-77
2022/07/18 08:12:05;;;;;;;2.15;1.70;;;;;;;19.49;60.01;100067.44;1804992;79;21018;-77
2022/07/18 08:14:33;;;;;;;5.70;1.10;;;;;;;19.44;58.63;100062.86;1804906;79;21129;-77
2022/07/18 08:17:00;;;;;;;2.20;1.00;;;;;;;19.44;61.01;100061.04;1804868;79;21005;-77
2022/07/18 08:19:27;;;;;;;1.02;0.82;;;;;;;19.49;58.55;100070.10;1804740;79;21084;-77
2022/07/18 08:21:54;;;;;;;3.05;1.52;;;;;;;19.36;57.75;100063.81;1804970;79;21058;-77
2022/07/18 08:24:21;;;;;;;3.70;0.93;;;;;;;19.18;57.60;100061.35;1808764;78;20980;-77
2022/07/18 08:26:49;;;;;;;3.50;1.75;;;;;;;19.11;57.74;100059.98;1813524;79;21167;-77
2022/07/18 08:29:16;;;;;;;3.08;2.12;;;;;;;19.06;58.50;100064.75;1813377;79;20957;-77
2022/07/18 08:31:42;;;;;;;1.50;1.10;;;;;;;19.14;59.03;100067.81;1813596;79;21118;-77
2022/07/18 08:34:11;;;;;;;1.22;1.12;;;;;;;19.33;59.02;100061.34;1813501;78;20873;-77
2022/07/18 08:36:38;;;;;;;4.47;1.10;;;;;;;19.53;58.99;100060.09;1813692;78;21078;-77
2022/07/18 08:39:05;;;;;;;2.65;1.15;;;;;;;19.60;58.12;100061.41;1813814;79;21052;-77
2022/07/18 08:41:33;;;;;;;1.10;1.00;;;;;;;19.63;56.02;100066.06;1813506;79;21562;-77
2022/07/18 08:44:00;;;;;;;3.42;1.02;;;;;;;19.70;57.62;100065.20;1813714;79;21051;-76
2022/07/18 08:46:26;;;;;;;3.17;0.90;;;;;;;19.85;56.79;100062.94;1813777;79;21054;-77
2022/07/18 08:48:55;;;;;;;0.75;0.70;;;;;;;20.02;57.16;100068.52;1813421;78;21692;-77
2022/07/18 08:51:22;;;;;;;1.80;0.80;;;;;;;20.19;55.17;100069.20;1814052;79;21605;-77
2022/07/18 08:53:51;;;;;;;1.80;0.78;;;;;;;20.26;55.03;100065.19;1813216;78;21503;-77
2022/07/18 08:56:18;;;;;;;0.90;0.90;;;;;;;20.26;55.02;100062.52;1813946;78;21023;-77
2022/07/18 08:58:47;;;;;;;3.27;0.80;;;;;;;20.22;54.17;100067.22;1813316;79;21083;-77
2022/07/18 09:01:14;;;;;;;1.15;0.90;;;;;;;20.20;55.73;100068.26;1813775;79;21042;-77
2022/07/18 09:03:40;;;;;;;0.72;0.65;;;;;;;20.28;53.32;100065.09;1813672;79;21060;-77
2022/07/18 09:06:12;;;;;;;1.30;0.80;;;;;;;20.41;53.19;100065.50;1813326;79;21055;-77
2022/07/18 09:09:00;;;;;;;3.02;0.85;;;;;;;20.57;52.82;100061.79;1813339;79;21079;-77
2022/07/18 09:11:26;;;;;;;0.85;0.60;;;;;;;20.70;51.98;100054.69;1813497;78;20996;-77
2022/07/18 09:13:54;;;;;;;1.57;0.60;;;;;;;20.85;52.51;100053.27;1813461;79;21467;-76
2022/07/18 09:16:21;;;;;;;9.18;0.62;;;;;;;20.87;51.77;100045.98;1813503;79;21129;-77
2022/07/18 09:18:49;;;;;;;3.42;0.90;;;;;;;20.81;50.42;100046.41;1813432;79;20972;-76
2022/07/18 09:21:21;;;;;;;2.15;0.70;;;;;;;20.77;50.11;100045.27;1813766;78;21023;-77
2022/07/18 09:23:50;;;;;;;0.75;0.70;;;;;;;20.80;50.06;100046.05;1813422;78;21019;-77
2022/07/18 09:26:42;;;;;;;0.80;0.60;;;;;;;20.78;51.12;100047.00;1813201;78;21066;-76
2022/07/18 09:29:13;;;;;;;1.82;0.65;;;;;;;20.85;52.14;100051.94;1813528;78;21980;-76
2022/07/18 09:31:40;;;;;;;0.50;0.40;;;;;;;20.87;51.95;100050.00;1791771;79;21637;-77
2022/07/18 09:34:07;;;;;;;1.10;0.50;;;;;;;20.81;50.75;100045.91;1791020;79;21062;-76
2022/07/18 09:36:36;;;;;;;1.12;0.42;;;;;;;20.73;50.92;100045.61;1813493;79;21523;-77
2022/07/18 09:39:19;;;;;;;2.05;0.47;;;;;;;20.77;52.18;100043.94;1813446;79;21067;-76
2022/07/18 09:41:46;;;;;;;1.03;0.50;;;;;;;20.95;52.20;100042.30;1807895;78;21200;-77
2022/07/18 09:44:17;;;;;;;1.05;0.40;;;;;;;21.17;52.49;100040.31;1803587;79;21826;-77
2022/07/18 09:47:01;;;;;;;3.90;0.65;;;;;;;21.28;49.06;100046.23;1803052;79;21016;-77
2022/07/18 09:49:31;;;;;;;2.55;0.50;;;;;;;21.20;49.07;100052.61;1803576;79;21551;-77
2022/07/18 09:52:08;;;;;;;2.58;0.68;;;;;;;21.16;49.23;100041.27;1803091;79;22269;-77
2022/07/18 09:54:42;;;;;;;2.83;0.50;;;;;;;21.24;48.54;100043.41;1802939;79;21064;-77
2022/07/18 09:57:25;;;;;;;0.50;0.50;;;;;;;21.31;48.97;100047.36;1803058;79;21597;-77
2022/07/18 09:59:53;;;;;;;2.22;0.50;;;;;;;21.43;47.47;100045.14;1803278;79;21047;-77
2022/07/18 10:02:20;;;;;;;2.95;0.30;;;;;;;21.57;48.01;100046.00;1803470;79;21075;-77
2022/07/18 10:04:48;;;;;;;3.00;0.47;;;;;;;21.66;47.50;100040.00;1803342;79;21099;-77
2022/07/18 10:07:15;;;;;;;3.12;0.30;;;;;;;21.70;48.08;100056.20;1803469;79;21784;-76
2022/07/18 10:09:45;;;;;;;2.87;0.50;;;;;;;21.67;47.37;100049.27;1803307;79;21618;-77
2022/07/18 10:12:14;;;;;;;1.70;0.50;;;;;;;21.66;47.86;100047.54;1803445;79;21024;-77
2022/07/18 10:14:41;;;;;;;0.90;0.70;;;;;;;21.71;47.69;100043.19;1803294;78;21074;-77
2022/07/18 10:17:08;;;;;;;2.20;0.40;;;;;;;21.84;48.14;100045.35;1813552;79;21039;-77
2022/07/18 10:19:36;;;;;;;0.35;0.35;;;;;;;22.01;46.32;100045.45;1813514;78;21596;-77
2022/07/18 10:22:03;;;;;;;2.47;0.40;;;;;;;22.20;45.21;100045.42;1813871;78;21035;-77
2022/07/18 10:24:30;;;;;;;1.17;0.30;;;;;;;22.31;45.25;100041.95;1813527;79;21055;-77
2022/07/18 10:27:20;;;;;;;0.40;0.40;;;;;;;22.36;46.30;100039.77;1813421;78;21050;-77
2022/07/18 10:30:08;;;;;;;1.20;0.30;;;;;;;22.42;44.98;100034.80;1813454;79;21036;-77
2022/07/18 10:32:35;;;;;;;0.47;0.40;;;;;;;22.45;46.92;100047.98;1808139;79;21109;-77
2022/07/18 10:35:02;;;;;;;1.55;0.45;;;;;;;22.53;45.08;100029.98;1811926;78;21123;-76
2022/07/18 10:37:33;;;;;;;0.62;0.30;;;;;;;22.62;45.75;100026.58;1813412;78;21015;-77
2022/07/18 10:40:29;;;;;;;2.90;0.30;;;;;;;22.70;43.61;100026.50;1813919;79;21032;-77
2022/07/18 10:43:32;;;;;;;0.30;0.30;;;;;;;22.74;43.97;100025.27;1813569;78;21026;-77
2022/07/18 10:45:59;;;;;;;1.82;0.40;;;;;;;22.74;43.13;100023.94;1813892;79;21580;-77
2022/07/18 10:48:45;;;;;;;0.90;0.28;;;;;;;22.63;43.68;100032.33;1813383;79;21047;-76
2022/07/18 10:51:13;;;;;;;0.20;0.20;;;;;;;22.62;43.41;100025.23;1813775;78;21015;-77
2022/07/18 10:54:07;;;;;;;2.55;0.30;;;;;;;22.70;41.52;100020.64;1813784;79;21075;-77
2022/07/18 10:56:42;;;;;;;1.67;0.40;;;;;;;22.60;43.92;100027.19;1813513;79;21012;-77
2022/07/18 10:59:20;;;;;;;1.87;0.30;;;;;;;22.52;44.61;100021.55;1813751;78;21038;-77
2022/07/18 11:01:51;;;;;;;4.92;0.42;;;;;;;22.59;45.68;100021.94;1813696;79;21083;-77
2022/07/18 11:04:30;;;;;;;0.57;0.37;;;;;;;22.70;44.23;100021.98;1813621;79;21542;-77
2022/07/18 11:07:06;;;;;;;0.20;0.20;;;;;;;22.71;43.45;100017.46;1813525;78;21079;-77
2022/07/18 11:09:47;;;;;;;1.47;0.37;;;;;;;22.66;44.47;100014.28;1813507;78;21027;-77
2022/07/18 11:12:28;;;;;;;0.30;0.30;;;;;;;22.59;43.99;100014.77;1813237;78;21091;-77
2022/07/18 11:15:12;;;;;;;0.70;0.30;;;;;;;22.53;44.51;100017.08;1812831;78;21023;-77
2022/07/18 11:17:58;;;;;;;2.35;0.40;;;;;;;22.46;44.53;100027.41;1813905;79;21684;-77
2022/07/18 11:20:36;;;;;;;0.40;0.40;;;;;;;22.35;44.63;100024.68;1813564;79;21055;-77
2022/07/18 11:23:21;;;;;;;1.10;0.30;;;;;;;22.22;44.17;100022.88;1813852;79;21154;-76
2022/07/18 11:25:57;;;;;;;0.85;0.50;;;;;;;22.11;44.12;100026.87;1813608;79;21213;-76
2022/07/18 11:28:25;;;;;;;0.20;0.20;;;;;;;21.94;44.15;100025.91;1813423;79;21051;-77
2022/07/18 11:31:08;;;;;;;3.22;0.30;;;;;;;21.73;45.05;100021.16;1813550;78;21550;-76
2022/07/18 11:33:37;;;;;;;0.42;0.30;;;;;;;21.60;45.48;100019.01;1813827;79;21062;-77
2022/07/18 11:36:09;;;;;;;3.22;0.72;;;;;;;21.51;46.58;100021.38;1813539;79;21040;-77